createdAt,value
2016-10-06T00:00:22.871Z,1020.28
2016-10-06T00:01:22.855Z,1020.27
2016-10-06T00:02:22.839Z,1020.29
2016-10-06T00:03:22.822Z,1020.28
2016-10-06T00:04:22.807Z,1020.27
2016-10-06T00:05:22.789Z,1020.27
2016-10-06T00:06:22.775Z,1020.29
2016-10-06T00:07:22.757Z,1020.26
2016-10-06T00:08:22.743Z,1020.25
2016-10-06T00:09:22.725Z,1020.2
2016-10-06T00:10:22.723Z,1020.22
2016-10-06T00:11:22.693Z,1020.25
2016-10-06T00:12:22.676Z,1020.28
2016-10-06T00:13:22.660Z,1020.24
2016-10-06T00:14:22.645Z,1020.25
2016-10-06T00:15:22.628Z,1020.25
2016-10-06T00:16:22.611Z,1020.23
2016-10-06T00:17:22.597Z,1020.2
2016-10-06T00:18:22.579Z,1020.2
2016-10-06T00:19:22.595Z,1020.18
2016-10-06T00:20:22.546Z,1020.21
2016-10-06T00:21:22.531Z,1020.19
2016-10-06T00:22:22.516Z,1020.18
2016-10-06T00:23:22.498Z,1020.17
2016-10-06T00:24:22.483Z,1020.15
2016-10-06T00:25:22.467Z,1020.15
2016-10-06T00:26:22.450Z,1020.16
2016-10-06T00:27:22.435Z,1020.16
2016-10-06T00:28:22.420Z,1020.13
2016-10-06T00:29:22.407Z,1020.12
2016-10-06T00:30:22.386Z,1020.13
2016-10-06T00:31:22.372Z,1020.12
2016-10-06T00:32:22.356Z,1020.12
2016-10-06T00:33:22.339Z,1020.09
2016-10-06T00:34:22.323Z,1020.12
2016-10-06T00:35:22.307Z,1020.11
2016-10-06T00:36:22.294Z,1020.07
2016-10-06T00:37:22.278Z,1020.09
2016-10-06T00:38:22.263Z,1020.08
2016-10-06T00:39:22.255Z,1020.06
2016-10-06T00:40:22.229Z,1020.06
2016-10-06T00:41:22.214Z,1020.05
2016-10-06T00:42:22.199Z,1020.1
2016-10-06T00:43:22.181Z,1020.07
2016-10-06T00:44:22.166Z,1020.04
2016-10-06T00:45:22.149Z,1020.08
2016-10-06T00:46:22.133Z,1020.08
2016-10-06T00:47:22.116Z,1020.08
2016-10-06T00:48:22.101Z,1020.02
2016-10-06T00:49:22.085Z,1020
2016-10-06T00:50:22.070Z,1019.97
2016-10-06T00:51:22.053Z,1019.96
2016-10-06T00:52:22.038Z,1019.97
2016-10-06T00:53:22.023Z,1019.96
2016-10-06T00:54:22.010Z,1019.95
2016-10-06T00:55:21.989Z,1019.94
2016-10-06T00:56:21.976Z,1019.95
2016-10-06T00:57:21.958Z,1019.93
2016-10-06T00:58:21.947Z,1019.94
2016-10-06T00:59:22.146Z,1019.86
2016-10-06T01:00:21.912Z,1019.86
2016-10-06T01:01:21.897Z,1019.88
2016-10-06T01:02:21.879Z,1019.83
2016-10-06T01:03:21.881Z,1019.84
2016-10-06T01:04:21.848Z,1019.81
2016-10-06T01:05:21.834Z,1019.79
2016-10-06T01:06:21.817Z,1019.76
2016-10-06T01:07:21.801Z,1019.74
2016-10-06T01:08:21.788Z,1019.73
2016-10-06T01:09:21.770Z,1019.71
2016-10-06T01:10:21.755Z,1019.7
2016-10-06T01:11:21.738Z,1019.66
2016-10-06T01:12:21.728Z,1019.63
2016-10-06T01:13:21.707Z,1019.64
2016-10-06T01:14:21.691Z,1019.65
2016-10-06T01:15:21.676Z,1019.65
2016-10-06T01:16:21.661Z,1019.61
2016-10-06T01:17:21.645Z,1019.61
2016-10-06T01:18:21.630Z,1019.54
2016-10-06T01:19:21.614Z,1019.53
2016-10-06T01:20:21.598Z,1019.47
2016-10-06T01:21:21.584Z,1019.46
2016-10-06T01:22:21.567Z,1019.45
2016-10-06T01:23:21.552Z,1019.44
2016-10-06T01:24:21.536Z,1019.45
2016-10-06T01:25:21.520Z,1019.46
2016-10-06T01:26:21.504Z,1019.42
2016-10-06T01:27:21.489Z,1019.41
2016-10-06T01:28:21.474Z,1019.39
2016-10-06T01:29:21.457Z,1019.38
2016-10-06T01:30:21.442Z,1019.37
2016-10-06T01:31:21.428Z,1019.35
2016-10-06T01:32:21.410Z,1019.32
2016-10-06T01:33:21.393Z,1019.27
2016-10-06T01:34:21.379Z,1019.3
2016-10-06T01:35:21.362Z,1019.29
2016-10-06T01:36:21.347Z,1019.29
2016-10-06T01:37:21.332Z,1019.19
2016-10-06T01:38:21.316Z,1019.18
2016-10-06T01:39:21.299Z,1019.2
2016-10-06T01:40:21.285Z,1019.23
2016-10-06T01:41:21.268Z,1019.22
2016-10-06T01:42:21.251Z,1019.25
2016-10-06T01:43:21.236Z,1019.2
2016-10-06T01:44:21.225Z,1019.17
2016-10-06T01:45:21.204Z,1019.15
2016-10-06T01:46:21.188Z,1019.15
2016-10-06T01:47:21.171Z,1019.13
2016-10-06T01:48:21.157Z,1019.1
2016-10-06T01:49:21.141Z,1019.17
2016-10-06T01:50:21.128Z,1019.17
2016-10-06T01:51:21.108Z,1019.18
2016-10-06T01:52:21.092Z,1019.19
2016-10-06T01:53:21.077Z,1019.13
2016-10-06T01:54:21.061Z,1019.15
2016-10-06T01:55:21.044Z,1019.15
2016-10-06T01:56:21.030Z,1019.14
2016-10-06T01:57:21.010Z,1019.11
2016-10-06T01:58:20.996Z,1019.08
2016-10-06T01:59:20.981Z,1019.09
2016-10-06T02:00:20.963Z,1019.1
2016-10-06T02:01:20.950Z,1019.07
2016-10-06T02:02:20.932Z,1019.09
2016-10-06T02:03:20.917Z,1019.09
2016-10-06T02:04:20.899Z,1019.14
2016-10-06T02:05:20.889Z,1019.08
2016-10-06T02:06:20.868Z,1019.11
2016-10-06T02:07:20.852Z,1019.06
2016-10-06T02:08:20.850Z,1019.05
2016-10-06T02:09:20.818Z,1019.04
2016-10-06T02:10:20.803Z,1019.08
2016-10-06T02:11:20.803Z,1019.02
2016-10-06T02:12:20.773Z,1019.04
2016-10-06T02:13:20.754Z,1019.01
2016-10-06T02:14:20.738Z,1019.03
2016-10-06T02:15:20.721Z,1019.09
2016-10-06T02:16:20.705Z,1019.08
2016-10-06T02:17:20.690Z,1019.05
2016-10-06T02:18:20.681Z,1019.03
2016-10-06T02:19:20.658Z,1019.02
2016-10-06T02:20:20.640Z,1018.99
2016-10-06T02:21:20.624Z,1018.91
2016-10-06T02:22:20.609Z,1018.85
2016-10-06T02:23:20.593Z,1018.86
2016-10-06T02:24:20.576Z,1018.79
2016-10-06T02:25:20.560Z,1018.8
2016-10-06T02:26:20.543Z,1018.77
2016-10-06T02:27:20.527Z,1018.76
2016-10-06T02:28:20.511Z,1018.75
2016-10-06T02:29:20.496Z,1018.75
2016-10-06T02:30:20.478Z,1018.73
2016-10-06T02:31:20.465Z,1018.62
2016-10-06T02:32:20.450Z,1018.61
2016-10-06T02:33:20.432Z,1018.57
2016-10-06T02:34:20.414Z,1018.58
2016-10-06T02:35:20.397Z,1018.55
2016-10-06T02:36:20.384Z,1018.53
2016-10-06T02:37:20.377Z,1018.49
2016-10-06T02:38:20.350Z,1018.45
2016-10-06T02:39:20.334Z,1018.4
2016-10-06T02:40:20.319Z,1018.41
2016-10-06T02:41:20.300Z,1018.4
2016-10-06T02:42:20.288Z,1018.37
2016-10-06T02:43:20.269Z,1018.37
2016-10-06T02:44:20.253Z,1018.38
2016-10-06T02:45:20.238Z,1018.36
2016-10-06T02:46:20.226Z,1018.32
2016-10-06T02:47:20.206Z,1018.33
2016-10-06T02:48:20.189Z,1018.37
2016-10-06T02:49:20.172Z,1018.36
2016-10-06T02:50:20.162Z,1018.27
2016-10-06T02:51:20.142Z,1018.25
2016-10-06T02:52:20.125Z,1018.24
2016-10-06T02:53:20.116Z,1018.27
2016-10-06T02:54:20.096Z,1018.28
2016-10-06T02:55:20.084Z,1018.26
2016-10-06T02:56:20.062Z,1018.23
2016-10-06T02:57:20.048Z,1018.21
2016-10-06T02:58:20.031Z,1018.25
2016-10-06T02:59:20.215Z,1018.25
2016-10-06T03:00:19.998Z,1018.23
2016-10-06T03:01:19.983Z,1018.28
2016-10-06T03:02:19.966Z,1018.29
2016-10-06T03:03:19.950Z,1018.27
2016-10-06T03:04:19.934Z,1018.17
2016-10-06T03:05:19.921Z,1018.16
2016-10-06T03:06:19.901Z,1018.18
2016-10-06T03:07:19.886Z,1018.19
2016-10-06T03:08:19.872Z,1018.16
2016-10-06T03:09:19.856Z,1018.19
2016-10-06T03:10:19.837Z,1018.23
2016-10-06T03:11:19.821Z,1018.25
2016-10-06T03:12:19.805Z,1018.23
2016-10-06T03:13:19.787Z,1018.22
2016-10-06T03:14:19.772Z,1018.18
2016-10-06T03:15:19.756Z,1018.17
2016-10-06T03:16:19.742Z,1018.18
2016-10-06T03:17:19.724Z,1018.17
2016-10-06T03:18:19.709Z,1018.14
2016-10-06T03:19:19.692Z,1018.12
2016-10-06T03:20:19.674Z,1018.16
2016-10-06T03:21:19.660Z,1018.11
2016-10-06T03:22:19.642Z,1018.08
2016-10-06T03:23:19.627Z,1018.08
2016-10-06T03:24:19.611Z,1018.06
2016-10-06T03:25:19.593Z,1018.06
2016-10-06T03:26:19.578Z,1018.09
2016-10-06T03:27:19.559Z,1018.06
2016-10-06T03:28:19.544Z,1018.07
2016-10-06T03:29:19.526Z,1018.04
2016-10-06T03:30:19.533Z,1018.03
2016-10-06T03:31:19.514Z,1017.99
2016-10-06T03:32:19.500Z,1017.98
2016-10-06T03:33:19.476Z,1017.96
2016-10-06T03:34:19.446Z,1017.9
2016-10-06T03:35:19.430Z,1017.93
2016-10-06T03:36:19.413Z,1017.95
2016-10-06T03:37:19.398Z,1017.93
2016-10-06T03:38:19.381Z,1017.95
2016-10-06T03:39:19.364Z,1017.98
2016-10-06T03:40:19.346Z,1017.93
2016-10-06T03:41:19.330Z,1017.88
2016-10-06T03:42:19.315Z,1017.9
2016-10-06T03:43:19.299Z,1017.86
2016-10-06T03:44:19.283Z,1017.85
2016-10-06T03:45:19.266Z,1017.82
2016-10-06T03:46:19.249Z,1017.85
2016-10-06T03:47:19.231Z,1017.78
2016-10-06T03:48:19.216Z,1017.77
2016-10-06T03:49:19.197Z,1017.76
2016-10-06T03:50:19.181Z,1017.73
2016-10-06T03:51:19.165Z,1017.74
2016-10-06T03:52:19.149Z,1017.76
2016-10-06T03:53:19.133Z,1017.82
2016-10-06T03:54:19.116Z,1017.85
2016-10-06T03:55:19.099Z,1017.87
2016-10-06T03:56:19.084Z,1017.88
2016-10-06T03:57:19.070Z,1017.83
2016-10-06T03:58:19.049Z,1017.8
2016-10-06T03:59:19.039Z,1017.77
2016-10-06T04:00:19.017Z,1017.75
2016-10-06T04:01:19.000Z,1017.78
2016-10-06T04:02:18.985Z,1017.75
2016-10-06T04:03:18.970Z,1017.76
2016-10-06T04:04:18.952Z,1017.71
2016-10-06T04:05:18.935Z,1017.74
2016-10-06T04:06:18.919Z,1017.68
2016-10-06T04:07:18.903Z,1017.65
2016-10-06T04:08:18.888Z,1017.68
2016-10-06T04:09:18.868Z,1017.71
2016-10-06T04:10:18.859Z,1017.72
2016-10-06T04:11:18.841Z,1017.67
2016-10-06T04:12:18.820Z,1017.7
2016-10-06T04:13:18.805Z,1017.68
2016-10-06T04:14:18.787Z,1017.68
2016-10-06T04:15:18.777Z,1017.73
2016-10-06T04:16:18.759Z,1017.76
2016-10-06T04:17:18.737Z,1017.76
2016-10-06T04:18:18.722Z,1017.78
2016-10-06T04:19:18.707Z,1017.73
2016-10-06T04:20:18.688Z,1017.66
2016-10-06T04:21:18.676Z,1017.63
2016-10-06T04:22:18.656Z,1017.66
2016-10-06T04:23:18.640Z,1017.63
2016-10-06T04:24:18.624Z,1017.64
2016-10-06T04:25:18.607Z,1017.65
2016-10-06T04:26:18.592Z,1017.69
2016-10-06T04:27:18.574Z,1017.68
2016-10-06T04:28:18.559Z,1017.64
2016-10-06T04:29:18.542Z,1017.61
2016-10-06T04:30:18.527Z,1017.6
2016-10-06T04:31:18.512Z,1017.51
2016-10-06T04:32:18.495Z,1017.48
2016-10-06T04:33:18.482Z,1017.48
2016-10-06T04:34:18.462Z,1017.46
2016-10-06T04:35:18.447Z,1017.44
2016-10-06T04:36:18.432Z,1017.41
2016-10-06T04:37:18.414Z,1017.39
2016-10-06T04:38:18.398Z,1017.39
2016-10-06T04:39:18.381Z,1017.34
2016-10-06T04:40:18.366Z,1017.36
2016-10-06T04:41:18.356Z,1017.31
2016-10-06T04:42:18.337Z,1017.34
2016-10-06T04:43:18.317Z,1017.31
2016-10-06T04:44:18.302Z,1017.34
2016-10-06T04:45:18.292Z,1017.28
2016-10-06T04:46:18.270Z,1017.31
2016-10-06T04:47:18.254Z,1017.27
2016-10-06T04:48:18.241Z,1017.27
2016-10-06T04:49:18.222Z,1017.26
2016-10-06T04:50:18.206Z,1017.27
2016-10-06T04:51:18.190Z,1017.27
2016-10-06T04:52:18.174Z,1017.25
2016-10-06T04:53:18.157Z,1017.28
2016-10-06T04:54:18.142Z,1017.24
2016-10-06T04:55:18.125Z,1017.24
2016-10-06T04:56:18.110Z,1017.18
2016-10-06T04:57:18.109Z,1017.19
2016-10-06T04:58:18.094Z,1017.23
2016-10-06T04:59:18.271Z,1017.2
2016-10-06T05:00:18.047Z,1017.22
2016-10-06T05:01:18.032Z,1017.2
2016-10-06T05:02:18.015Z,1017.19
2016-10-06T05:03:17.998Z,1017.14
2016-10-06T05:04:17.984Z,1017.17
2016-10-06T05:05:17.973Z,1017.16
2016-10-06T05:06:17.954Z,1017.15
2016-10-06T05:07:17.936Z,1017.18
2016-10-06T05:08:17.923Z,1017.22
2016-10-06T05:09:17.906Z,1017.18
2016-10-06T05:10:17.890Z,1017.23
2016-10-06T05:11:17.873Z,1017.23
2016-10-06T05:12:17.857Z,1017.3
2016-10-06T05:13:17.844Z,1017.21
2016-10-06T05:14:17.826Z,1017.24
2016-10-06T05:15:17.810Z,1017.2
2016-10-06T05:16:17.796Z,1017.21
2016-10-06T05:17:17.781Z,1017.15
2016-10-06T05:18:17.766Z,1017.17
2016-10-06T05:19:17.748Z,1017.25
2016-10-06T05:20:17.733Z,1017.21
2016-10-06T05:21:17.719Z,1017.13
2016-10-06T05:22:17.701Z,1017.19
2016-10-06T05:23:17.685Z,1017.17
2016-10-06T05:24:17.678Z,1017.17
2016-10-06T05:25:17.656Z,1017.13
2016-10-06T05:26:17.637Z,1017.1
2016-10-06T05:27:17.624Z,1017.09
2016-10-06T05:28:17.613Z,1017.11
2016-10-06T05:29:17.593Z,1017.11
2016-10-06T05:30:17.576Z,1017.08
2016-10-06T05:31:17.563Z,1017.09
2016-10-06T05:32:17.548Z,1017.07
2016-10-06T05:33:17.530Z,1017.07
2016-10-06T05:34:17.516Z,1017.06
2016-10-06T05:35:17.501Z,1017.03
2016-10-06T05:36:17.498Z,1017.05
2016-10-06T05:37:17.470Z,1017.04
2016-10-06T05:38:17.455Z,1016.98
2016-10-06T05:39:17.439Z,1017.03
2016-10-06T05:40:17.423Z,1017.04
2016-10-06T05:41:17.408Z,1016.98
2016-10-06T05:42:17.395Z,1017.02
2016-10-06T05:43:17.378Z,1017.07
2016-10-06T05:44:17.361Z,1017.11
2016-10-06T05:45:17.346Z,1017.11
2016-10-06T05:46:17.333Z,1017.11
2016-10-06T05:47:17.317Z,1017.08
2016-10-06T05:48:17.302Z,1017.1
2016-10-06T05:49:17.286Z,1017.1
2016-10-06T05:50:17.272Z,1017.03
2016-10-06T05:51:17.257Z,1017.06
2016-10-06T05:52:17.240Z,1016.99
2016-10-06T05:53:17.226Z,1016.93
2016-10-06T05:54:17.215Z,1016.92
2016-10-06T05:55:17.195Z,1016.87
2016-10-06T05:56:17.181Z,1016.93
2016-10-06T05:57:17.166Z,1016.96
2016-10-06T05:58:17.151Z,1017.09
2016-10-06T05:59:17.136Z,1017.13
2016-10-06T06:00:17.120Z,1017.06
2016-10-06T06:01:17.105Z,1017.02
2016-10-06T06:02:17.090Z,1016.95
2016-10-06T06:03:17.074Z,1017.03
2016-10-06T06:04:17.059Z,1017.06
2016-10-06T06:05:17.046Z,1017.06
2016-10-06T06:06:17.032Z,1017.08
2016-10-06T06:07:17.015Z,1017.08
2016-10-06T06:08:17.001Z,1017.04
2016-10-06T06:09:16.984Z,1017.08
2016-10-06T06:10:16.971Z,1017.1
2016-10-06T06:11:16.955Z,1017.06
2016-10-06T06:12:16.940Z,1017.1
2016-10-06T06:13:16.925Z,1017.1
2016-10-06T06:14:16.911Z,1017.06
2016-10-06T06:15:16.898Z,1017.04
2016-10-06T06:16:16.880Z,1016.98
2016-10-06T06:17:16.868Z,1017
2016-10-06T06:18:16.849Z,1016.99
2016-10-06T06:19:16.835Z,1017.03
2016-10-06T06:20:16.820Z,1017.02
2016-10-06T06:21:16.806Z,1016.98
2016-10-06T06:22:16.795Z,1016.99
2016-10-06T06:23:16.793Z,1016.95
2016-10-06T06:24:16.761Z,1016.95
2016-10-06T06:25:16.751Z,1016.93
2016-10-06T06:26:16.731Z,1016.92
2016-10-06T06:27:16.719Z,1016.97
2016-10-06T06:28:16.702Z,1016.97
2016-10-06T06:29:16.688Z,1016.94
2016-10-06T06:30:16.673Z,1017.01
2016-10-06T06:31:16.659Z,1017
2016-10-06T06:32:16.643Z,1017.02
2016-10-06T06:33:16.630Z,1017.02
2016-10-06T06:34:16.612Z,1017.03
2016-10-06T06:35:16.597Z,1017.01
2016-10-06T06:36:16.584Z,1016.96
2016-10-06T06:37:16.572Z,1017.01
2016-10-06T06:38:16.553Z,1017.05
2016-10-06T06:39:16.538Z,1016.99
2016-10-06T06:40:16.524Z,1016.96
2016-10-06T06:41:16.510Z,1016.94
2016-10-06T06:42:16.494Z,1016.9
2016-10-06T06:43:16.480Z,1016.91
2016-10-06T06:44:16.464Z,1016.94
2016-10-06T06:45:16.450Z,1016.96
2016-10-06T06:46:16.436Z,1016.91
2016-10-06T06:47:16.420Z,1016.86
2016-10-06T06:48:16.406Z,1016.78
2016-10-06T06:49:16.391Z,1016.74
2016-10-06T06:50:16.376Z,1016.71
2016-10-06T06:51:16.365Z,1016.65
2016-10-06T06:52:16.350Z,1016.57
2016-10-06T06:53:16.332Z,1016.61
2016-10-06T06:54:16.319Z,1016.58
2016-10-06T06:55:16.302Z,1016.59
2016-10-06T06:56:16.491Z,1016.62
2016-10-06T06:57:16.277Z,1016.72
2016-10-06T06:58:16.261Z,1016.72
2016-10-06T06:59:16.249Z,1016.74
2016-10-06T07:00:16.231Z,1016.76
2016-10-06T07:01:16.217Z,1016.79
2016-10-06T07:02:16.202Z,1016.73
2016-10-06T07:03:16.189Z,1016.8
2016-10-06T07:04:16.172Z,1016.81
2016-10-06T07:05:16.159Z,1016.84
2016-10-06T07:06:16.145Z,1016.88
2016-10-06T07:07:16.131Z,1016.83
2016-10-06T07:08:16.117Z,1016.87
2016-10-06T07:09:16.102Z,1016.86
2016-10-06T07:10:16.088Z,1016.85
2016-10-06T07:11:16.073Z,1016.86
2016-10-06T07:12:16.060Z,1016.81
2016-10-06T07:13:16.046Z,1016.81
2016-10-06T07:14:16.033Z,1016.81
2016-10-06T07:15:16.016Z,1016.79
2016-10-06T07:16:16.003Z,1016.83
2016-10-06T07:17:15.987Z,1016.81
2016-10-06T07:18:15.975Z,1016.82
2016-10-06T07:19:15.958Z,1016.81
2016-10-06T07:20:15.947Z,1016.81
2016-10-06T07:21:15.931Z,1016.79
2016-10-06T07:22:15.917Z,1016.77
2016-10-06T07:23:15.904Z,1016.75
2016-10-06T07:24:15.890Z,1016.78
2016-10-06T07:25:15.876Z,1016.74
2016-10-06T07:26:15.861Z,1016.73
2016-10-06T07:27:15.848Z,1016.74
2016-10-06T07:28:15.833Z,1016.78
2016-10-06T07:29:15.820Z,1016.75
2016-10-06T07:30:15.803Z,1016.77
2016-10-06T07:31:15.792Z,1016.73
2016-10-06T07:32:15.777Z,1016.76
2016-10-06T07:33:15.763Z,1016.77
2016-10-06T07:34:15.749Z,1016.72
2016-10-06T07:35:15.737Z,1016.73
2016-10-06T07:36:15.736Z,1016.7
2016-10-06T07:37:15.706Z,1016.68
2016-10-06T07:38:15.694Z,1016.73
2016-10-06T07:39:15.681Z,1016.73
2016-10-06T07:40:15.666Z,1016.7
2016-10-06T07:41:15.653Z,1016.77
2016-10-06T07:42:15.643Z,1016.77
2016-10-06T07:43:15.625Z,1016.78
2016-10-06T07:44:15.613Z,1016.76
2016-10-06T07:45:15.597Z,1016.76
2016-10-06T07:46:15.585Z,1016.71
2016-10-06T07:47:15.571Z,1016.75
2016-10-06T07:48:15.558Z,1016.73
2016-10-06T07:49:15.543Z,1016.76
2016-10-06T07:50:15.528Z,1016.81
2016-10-06T07:51:15.513Z,1016.84
2016-10-06T07:52:15.500Z,1016.87
2016-10-06T07:53:15.487Z,1016.86
2016-10-06T07:54:15.475Z,1016.86
2016-10-06T07:55:15.458Z,1016.86
2016-10-06T07:56:15.444Z,1016.85
2016-10-06T07:57:15.433Z,1016.92
2016-10-06T07:58:15.417Z,1016.9
2016-10-06T07:59:15.403Z,1016.91
2016-10-06T08:00:15.389Z,1016.91
2016-10-06T08:01:15.377Z,1016.92
2016-10-06T08:02:15.365Z,1016.94
2016-10-06T08:03:15.350Z,1016.91
2016-10-06T08:04:15.335Z,1016.95
2016-10-06T08:05:15.323Z,1016.93
2016-10-06T08:06:15.308Z,1016.95
2016-10-06T08:07:15.295Z,1016.97
2016-10-06T08:08:15.282Z,1016.96
2016-10-06T08:09:15.267Z,1016.98
2016-10-06T08:10:15.250Z,1016.96
2016-10-06T08:11:15.235Z,1017.01
2016-10-06T08:12:15.301Z,1016.97
2016-10-06T08:13:15.217Z,1016.98
2016-10-06T08:14:15.194Z,1016.95
2016-10-06T08:15:15.181Z,1017
2016-10-06T08:16:15.168Z,1016.98
2016-10-06T08:17:15.153Z,1016.96
2016-10-06T08:18:15.140Z,1017.01
2016-10-06T08:19:15.127Z,1016.98
2016-10-06T08:20:15.114Z,1017
2016-10-06T08:21:15.100Z,1017.01
2016-10-06T08:22:15.086Z,1017.01
2016-10-06T08:23:15.073Z,1016.94
2016-10-06T08:24:15.059Z,1016.92
2016-10-06T08:25:15.046Z,1016.94
2016-10-06T08:26:15.033Z,1016.93
2016-10-06T08:27:15.023Z,1016.96
2016-10-06T08:28:15.005Z,1016.94
2016-10-06T08:29:14.993Z,1016.93
2016-10-06T08:30:14.979Z,1016.94
2016-10-06T08:31:14.966Z,1016.94
2016-10-06T08:32:14.952Z,1016.91
2016-10-06T08:33:14.939Z,1016.92
2016-10-06T08:34:14.928Z,1016.92
2016-10-06T08:35:14.912Z,1016.87
2016-10-06T08:36:14.898Z,1016.89
2016-10-06T08:37:14.888Z,1016.86
2016-10-06T08:38:14.874Z,1016.79
2016-10-06T08:39:14.860Z,1016.8
2016-10-06T08:40:14.847Z,1016.85
2016-10-06T08:41:14.835Z,1016.77
2016-10-06T08:42:14.821Z,1016.79
2016-10-06T08:43:14.807Z,1016.75
2016-10-06T08:44:14.794Z,1016.78
2016-10-06T08:45:14.781Z,1016.78
2016-10-06T08:46:14.767Z,1016.69
2016-10-06T08:47:14.752Z,1016.66
2016-10-06T08:48:14.740Z,1016.71
2016-10-06T08:49:14.729Z,1016.65
2016-10-06T08:50:14.714Z,1016.7
2016-10-06T08:51:14.702Z,1016.67
2016-10-06T08:52:14.689Z,1016.67
2016-10-06T08:53:14.677Z,1016.66
2016-10-06T08:54:14.662Z,1016.65
2016-10-06T08:55:14.650Z,1016.61
2016-10-06T08:56:14.638Z,1016.64
2016-10-06T08:57:14.623Z,1016.59
2016-10-06T08:58:14.610Z,1016.66
2016-10-06T08:59:14.599Z,1016.66
2016-10-06T09:00:14.788Z,1016.65
2016-10-06T09:01:14.570Z,1016.67
2016-10-06T09:02:14.558Z,1016.7
2016-10-06T09:03:14.545Z,1016.71
2016-10-06T09:04:14.534Z,1016.73
2016-10-06T09:05:14.520Z,1016.72
2016-10-06T09:06:14.507Z,1016.73
2016-10-06T09:07:14.497Z,1016.73
2016-10-06T09:08:14.482Z,1016.78
2016-10-06T09:09:14.470Z,1016.77
2016-10-06T09:10:14.457Z,1016.81
2016-10-06T09:11:14.444Z,1016.81
2016-10-06T09:12:14.433Z,1016.75
2016-10-06T09:13:14.418Z,1016.79
2016-10-06T09:14:14.405Z,1016.76
2016-10-06T09:15:14.393Z,1016.77
2016-10-06T09:16:14.383Z,1016.78
2016-10-06T09:17:14.367Z,1016.79
2016-10-06T09:18:14.357Z,1016.74
2016-10-06T09:19:14.343Z,1016.77
2016-10-06T09:20:14.332Z,1016.77
2016-10-06T09:21:14.316Z,1016.72
2016-10-06T09:22:14.305Z,1016.76
2016-10-06T09:23:14.292Z,1016.7
2016-10-06T09:24:14.281Z,1016.68
2016-10-06T09:25:14.268Z,1016.74
2016-10-06T09:26:14.254Z,1016.67
2016-10-06T09:27:14.240Z,1016.67
2016-10-06T09:28:14.228Z,1016.76
2016-10-06T09:29:14.218Z,1016.67
2016-10-06T09:30:14.203Z,1016.62
2016-10-06T09:31:14.192Z,1016.63
2016-10-06T09:32:14.178Z,1016.63
2016-10-06T09:33:14.165Z,1016.61
2016-10-06T09:34:14.151Z,1016.58
2016-10-06T09:35:14.141Z,1016.61
2016-10-06T09:36:14.127Z,1016.56
2016-10-06T09:37:14.113Z,1016.59
2016-10-06T09:38:14.103Z,1016.61
2016-10-06T09:39:14.088Z,1016.57
2016-10-06T09:40:14.075Z,1016.58
2016-10-06T09:41:14.063Z,1016.57
2016-10-06T09:42:14.051Z,1016.61
2016-10-06T09:43:14.040Z,1016.61
2016-10-06T09:44:14.028Z,1016.66
2016-10-06T09:45:14.012Z,1016.6
2016-10-06T09:46:13.999Z,1016.63
2016-10-06T09:47:13.988Z,1016.63
2016-10-06T09:48:13.976Z,1016.63
2016-10-06T09:49:13.960Z,1016.64
2016-10-06T09:50:13.947Z,1016.64
2016-10-06T09:51:13.936Z,1016.63
2016-10-06T09:52:13.929Z,1016.64
2016-10-06T09:53:13.908Z,1016.6
2016-10-06T09:54:13.897Z,1016.6
2016-10-06T09:55:13.885Z,1016.63
2016-10-06T09:56:13.869Z,1016.62
2016-10-06T09:57:13.859Z,1016.61
2016-10-06T09:58:13.844Z,1016.58
2016-10-06T09:59:13.830Z,1016.57
2016-10-06T10:00:13.821Z,1016.55
2016-10-06T10:01:13.805Z,1016.59
2016-10-06T10:02:13.791Z,1016.57
2016-10-06T10:03:13.778Z,1016.54
2016-10-06T10:04:13.766Z,1016.55
2016-10-06T10:05:13.754Z,1016.6
2016-10-06T10:06:13.741Z,1016.61
2016-10-06T10:07:13.727Z,1016.54
2016-10-06T10:08:13.714Z,1016.59
2016-10-06T10:09:13.701Z,1016.59
2016-10-06T10:10:13.687Z,1016.57
2016-10-06T10:11:13.672Z,1016.63
2016-10-06T10:12:13.662Z,1016.58
2016-10-06T10:13:13.651Z,1016.61
2016-10-06T10:14:13.635Z,1016.61
2016-10-06T10:15:13.622Z,1016.56
2016-10-06T10:16:13.609Z,1016.62
2016-10-06T10:17:13.627Z,1016.59
2016-10-06T10:18:13.582Z,1016.61
2016-10-06T10:19:13.569Z,1016.63
2016-10-06T10:20:13.556Z,1016.55
2016-10-06T10:21:13.542Z,1016.58
2016-10-06T10:22:13.529Z,1016.54
2016-10-06T10:23:13.516Z,1016.57
2016-10-06T10:24:13.503Z,1016.59
2016-10-06T10:25:13.489Z,1016.56
2016-10-06T10:26:13.477Z,1016.53
2016-10-06T10:27:13.463Z,1016.59
2016-10-06T10:28:13.451Z,1016.57
2016-10-06T10:29:13.441Z,1016.54
2016-10-06T10:30:13.423Z,1016.52
2016-10-06T10:31:13.416Z,1016.55
2016-10-06T10:32:13.396Z,1016.57
2016-10-06T10:33:13.386Z,1016.53
2016-10-06T10:34:13.369Z,1016.49
2016-10-06T10:35:13.357Z,1016.52
2016-10-06T10:36:13.343Z,1016.54
2016-10-06T10:37:13.331Z,1016.55
2016-10-06T10:38:13.317Z,1016.52
2016-10-06T10:39:13.304Z,1016.49
2016-10-06T10:40:13.292Z,1016.49
2016-10-06T10:41:13.277Z,1016.49
2016-10-06T10:42:13.264Z,1016.44
2016-10-06T10:43:13.250Z,1016.41
2016-10-06T10:44:13.237Z,1016.42
2016-10-06T10:45:13.224Z,1016.4
2016-10-06T10:46:13.212Z,1016.38
2016-10-06T10:47:13.198Z,1016.39
2016-10-06T10:48:13.186Z,1016.4
2016-10-06T10:49:13.170Z,1016.38
2016-10-06T10:50:13.158Z,1016.34
2016-10-06T10:51:13.145Z,1016.34
2016-10-06T10:52:13.134Z,1016.3
2016-10-06T10:53:13.120Z,1016.29
2016-10-06T10:54:13.106Z,1016.31
2016-10-06T10:55:13.093Z,1016.31
2016-10-06T10:56:13.086Z,1016.32
2016-10-06T10:57:13.067Z,1016.34
2016-10-06T10:58:13.054Z,1016.35
2016-10-06T10:59:13.043Z,1016.33
2016-10-06T11:00:13.230Z,1016.33
2016-10-06T11:01:13.017Z,1016.35
2016-10-06T11:02:13.002Z,1016.33
2016-10-06T11:03:12.989Z,1016.34
2016-10-06T11:04:12.977Z,1016.34
2016-10-06T11:05:12.963Z,1016.36
2016-10-06T11:06:12.948Z,1016.32
2016-10-06T11:07:12.937Z,1016.3
2016-10-06T11:08:12.924Z,1016.28
2016-10-06T11:09:12.910Z,1016.32
2016-10-06T11:10:12.897Z,1016.29
2016-10-06T11:11:12.886Z,1016.36
2016-10-06T11:12:12.871Z,1016.32
2016-10-06T11:13:12.859Z,1016.31
2016-10-06T11:14:12.846Z,1016.32
2016-10-06T11:15:12.832Z,1016.31
2016-10-06T11:16:12.821Z,1016.29
2016-10-06T11:17:12.807Z,1016.27
2016-10-06T11:18:12.795Z,1016.28
2016-10-06T11:19:12.782Z,1016.25
2016-10-06T11:20:12.770Z,1016.29
2016-10-06T11:21:12.757Z,1016.29
2016-10-06T11:22:12.745Z,1016.28
2016-10-06T11:23:12.732Z,1016.24
2016-10-06T11:24:12.718Z,1016.27
2016-10-06T11:25:12.706Z,1016.26
2016-10-06T11:26:12.695Z,1016.25
2016-10-06T11:27:12.684Z,1016.26
2016-10-06T11:28:12.668Z,1016.24
2016-10-06T11:29:12.655Z,1016.21
2016-10-06T11:30:12.644Z,1016.17
2016-10-06T11:31:12.631Z,1016.21
2016-10-06T11:32:12.619Z,1016.22
2016-10-06T11:33:12.606Z,1016.19
2016-10-06T11:34:12.594Z,1016.16
2016-10-06T11:35:12.580Z,1016.15
2016-10-06T11:36:12.568Z,1016.12
2016-10-06T11:37:12.556Z,1016.15
2016-10-06T11:38:12.543Z,1016.13
2016-10-06T11:39:12.531Z,1016.15
2016-10-06T11:40:12.519Z,1016.13
2016-10-06T11:41:12.506Z,1016.14
2016-10-06T11:42:12.494Z,1016.09
2016-10-06T11:43:12.481Z,1016.11
2016-10-06T11:44:12.468Z,1016.1
2016-10-06T11:45:12.455Z,1016.08
2016-10-06T11:46:12.444Z,1016.05
2016-10-06T11:47:12.432Z,1016.05
2016-10-06T11:48:12.420Z,1016.03
2016-10-06T11:49:12.406Z,1016.08
2016-10-06T11:50:12.393Z,1016.01
2016-10-06T11:51:12.382Z,1016
2016-10-06T11:52:12.370Z,1016.02
2016-10-06T11:53:12.357Z,1016.03
2016-10-06T11:54:12.345Z,1016.02
2016-10-06T11:55:12.332Z,1015.96
2016-10-06T11:56:12.320Z,1015.99
2016-10-06T11:57:12.307Z,1015.94
2016-10-06T11:58:12.295Z,1015.98
2016-10-06T11:59:12.282Z,1015.97
2016-10-06T12:00:12.269Z,1015.95
2016-10-06T12:01:12.257Z,1015.96
2016-10-06T12:02:12.246Z,1015.94
2016-10-06T12:03:12.233Z,1015.95
2016-10-06T12:04:12.220Z,1015.92
2016-10-06T12:05:12.208Z,1015.94
2016-10-06T12:06:12.195Z,1015.92
2016-10-06T12:07:12.183Z,1015.92